Home > Products > Valid Products > TAF

000
FTUS45 KFGZ 281131
TAFINW
TAF
KINW 281131Z 2812/2912 VRB06KT P6SM SCT120
     FM282100 26008G14KT P6SM BKN100
     FM290230 23010KT P6SM FEW100=



000
FTUS45 KFGZ 281131
TAFFLG
TAF
KFLG 281131Z 2812/2912 27003KT P6SM FEW120
     FM281800 22009KT P6SM BKN080
     FM290200 VRB04KT P6SM FEW080 FEW250=



000
FTUS45 KFGZ 281131
TAFPGA
TAF
KPGA 281131Z 2812/2912 26006KT P6SM FEW180=



000
FTUS45 KFGZ 280520
TAFPGA
TAF
KPGA 280520Z 2806/2906 VRB06KT P6SM FEW250=



000
FTUS45 KFGZ 280520
TAFFLG
TAF
KFLG 280520Z 2806/2906 VRB03KT P6SM FEW250
     FM281800 22009KT P6SM BKN080
     FM290200 VRB04KT P6SM FEW080 FEW250=



000
FTUS45 KFGZ 280520
TAFINW
TAF
KINW 280520Z 2806/2906 VRB06KT P6SM FEW250
     FM282100 26008KT P6SM BKN100=



000
FTUS45 KFGZ 272328
TAFPGA
TAF
KPGA 272328Z 2800/2824 22008G15KT P6SM SKC
     FM280200 VRB05KT P6SM SKC=



000
FTUS45 KFGZ 272328
TAFINW
TAF
KINW 272328Z 2800/2824 23015G25KT P6SM FEW120
     FM280200 24008KT P6SM FEW140
     FM280700 VRB06KT P6SM SKC
     FM282000 28008KT P6SM FEW120=



000
FTUS45 KFGZ 272328
TAFFLG
TAF
KFLG 272328Z 2800/2824 22015G25KT P6SM FEW100 FEW250
     FM280200 VRB03KT P6SM FEW250
     FM281800 23009KT P6SM SCT080=



000
FTUS45 KFGZ 271823 RRA
TAFINW
TAF
KINW 271823Z 2718/2818 VRB06KT P6SM FEW250
     FM272000 23015G25KT P6SM FEW250
     FM280200 24008KT P6SM FEW140 SCT250=



000
FTUS45 KFGZ 271823 RRA
TAFFLG
TAF
KFLG 271823Z 2718/2818 22015G25KT P6SM FEW250
     FM280200 VRB03KT P6SM FEW250=



000
FTUS45 KFGZ 271823 RRA
TAFPGA
TAF
KPGA 271823Z 2718/2818 25007KT P6SM SKC
     FM272100 28008G16KT P6SM SKC
     FM280200 VRB05KT P6SM SKC=



000
FTUS45 KFGZ 271823 RRA
TAFINW
TAF
KINW 271823Z 2718/2818 VRB06KT P6SM FEW250
     FM272000 23015G25KT P6SM FEW250
     FM280200 24008KT P6SM FEW140 SCT250=



000
FTUS45 KFGZ 271823 RRA
TAFFLG
TAF
KFLG 271823Z 2718/2818 22015G25KT P6SM FEW250
     FM280200 VRB03KT P6SM FEW250=



000
FTUS45 KFGZ 271120
TAFINW
TAF
KINW 271120Z 2712/2812 VRB05KT P6SM BKN200
     FM271800 24013G20KT P6SM FEW250
     FM280200 24008KT P6SM FEW140 SCT250=



000
FTUS45 KFGZ 271120
TAFINW
TAF
KINW 271120Z 2712/2812 VRB05KT P6SM BKN200
     FM271800 24013G20KT P6SM FEW250
     FM280200 24008KT P6SM FEW140 SCT250=



000
FTUS45 KFGZ 271120
TAFPGA
TAF
KPGA 271120Z 2712/2812 VRB05KT P6SM FEW150
     FM271800 28008G16KT P6SM SKC
     FM280200 VRB05KT P6SM SKC=



000
FTUS45 KFGZ 271120
TAFFLG
TAF
KFLG 271120Z 2712/2812 22005KT P6SM FEW100
     FM271600 22014G23KT P6SM FEW250
     FM280200 VRB03KT P6SM FEW250=



000
FTUS45 KFGZ 271120
TAFPGA
TAF
KPGA 271120Z 2712/2812 VRB05KT P6SM FEW150
     FM271800 28008G16KT P6SM SKC
     FM280200 VRB05KT P6SM SKC=



000
FTUS45 KFGZ 271120
TAFFLG
TAF
KFLG 271120Z 2712/2812 22005KT P6SM FEW100
     FM271600 22014G23KT P6SM FEW250
     FM280200 VRB03KT P6SM FEW250=



000
FTUS45 KFGZ 270532
TAFINW
TAF
KINW 270532Z 2706/2806 20008KT P6SM FEW120
     FM270900 VRB05KT P6SM SCT120
     FM271800 24013G20KT P6SM FEW250
     FM280200 24008KT P6SM FEW140 SCT250=



000
FTUS45 KFGZ 270532
TAFPGA
TAF
KPGA 270532Z 2706/2806 VRB05KT P6SM FEW150
     FM271800 28008G16KT P6SM SKC
     FM280200 VRB05KT P6SM SKC=



000
FTUS45 KFGZ 270532
TAFFLG
TAF
KFLG 270532Z 2706/2806 22005KT P6SM FEW100
     FM271600 22014G23KT P6SM FEW250
     FM280200 VRB03KT P6SM FEW250=



000
FTUS45 KFGZ 262341
TAFPGA
TAF
KPGA 262341Z 2700/2724 13010KT P6SM SCT150
     FM270300 VRB05KT P6SM FEW150
     FM271800 28008G16KT P6SM SKC=



000
FTUS45 KFGZ 262341
TAFINW
TAF
KINW 262341Z 2700/2724 23013G20KT P6SM FEW120
     FM270300 20008KT P6SM FEW120
     FM270900 VRB05KT P6SM SCT120
     FM271800 24013G20KT P6SM FEW250=



000
FTUS45 KFGZ 262341
TAFFLG
TAF
KFLG 262341Z 2700/2724 23010G15KT P6SM SCT110
     FM270200 23005KT P6SM FEW100
     FM271600 22014G23KT P6SM FEW250=



000
FTUS45 KFGZ 262341
TAFPGA
TAF
KPGA 262341Z 2700/2724 13010KT P6SM SCT150
     FM270300 VRB05KT P6SM FEW150
     FM271800 28008G16KT P6SM SKC=



000
FTUS45 KFGZ 262341
TAFFLG
TAF
KFLG 262341Z 2700/2724 23010G15KT P6SM SCT110
     FM270200 23005KT P6SM FEW100
     FM271600 22014G23KT P6SM FEW250=



000
FTUS45 KFGZ 262341
TAFINW
TAF
KINW 262341Z 2700/2724 23013G20KT P6SM FEW120
     FM270300 20008KT P6SM FEW120
     FM270900 VRB05KT P6SM SCT120
     FM271800 24013G20KT P6SM FEW250=



000
FTUS45 KFGZ 262036 AAA
TAFINW
TAF AMD
KINW 262036Z 2621/2718 23013G20KT P6SM SCT120
     FM270300 22007KT P6SM SCT150=



000
FTUS45 KFGZ 262036 AAA
TAFINW
TAF AMD
KINW 262036Z 2621/2718 23013G20KT P6SM SCT120
     FM270300 22007KT P6SM SCT150=



000
FTUS45 KFGZ 261720
TAFFLG
TAF
KFLG 261720Z 2618/2718 22012G19KT P6SM SCT110
     FM270300 23006KT P6SM FEW100
     FM271600 22011KT P6SM SKC=



000
FTUS45 KFGZ 261720
TAFINW
TAF
KINW 261720Z 2618/2718 VRB06KT P6SM SCT120
     FM262100 23013G20KT P6SM SCT120
     FM270300 22007KT P6SM SCT150=



000
FTUS45 KFGZ 261720
TAFPGA
TAF
KPGA 261720Z 2618/2718 10006KT P6SM SCT120
     FM262100 23011G18KT P6SM FEW120
     FM270300 VRB04KT P6SM SKC=



000
FTUS45 KFGZ 261614 AAB
TAFFLG
TAF AMD
KFLG 261614Z 2616/2712 22007KT P6SM BKN110
     FM261700 22012G19KT P6SM SCT110
     FM270100 VRB04KT P6SM FEW110=



000
FTUS45 KFGZ 261318 AAA
TAFFLG
TAF AMD
KFLG 261318Z 2613/2712 VRB04KT P6SM VCSH BKN110
     FM261700 22012G19KT P6SM SCT110
     FM270100 VRB04KT P6SM FEW110=



000
FTUS45 KFGZ 261303 AAA
TAFINW
TAF AMD
KINW 261303Z 2613/2712 VRB06KT P6SM BKN130
      TEMPO 2613/2616 -SHRA OVC090
     FM261900 23013G20KT P6SM SCT130
     FM270300 21006KT P6SM FEW130=



000
FTUS45 KFGZ 261303 AAA
TAFINW
TAF AMD
KINW 261303Z 2613/2712 VRB06KT P6SM BKN130
      TEMPO 2613/2616 -SHRA OVC090
     FM261900 23013G20KT P6SM SCT130
     FM270300 21006KT P6SM FEW130=



000
FTUS45 KFGZ 261120
TAFFLG
TAF
KFLG 261120Z 2612/2712 VRB04KT P6SM BKN110
     FM261700 22012G19KT P6SM SCT110
     FM270100 VRB04KT P6SM FEW110=



000
FTUS45 KFGZ 261120
TAFINW
TAF
KINW 261120Z 2612/2712 VRB06KT P6SM BKN130
     FM261900 23013G20KT P6SM SCT130
     FM270300 21006KT P6SM FEW130=



000
FTUS45 KFGZ 261120
TAFPGA
TAF
KPGA 261120Z 2612/2712 VRB06KT P6SM FEW250
     FM262300 28007G14KT P6SM FEW250
     FM270300 VRB04KT P6SM FEW250=



000
FTUS45 KFGZ 260522
TAFFLG
TAF
KFLG 260522Z 2606/2706 VRB04KT P6SM SCT110
     FM261700 22012G19KT P6SM SCT110
     FM270100 VRB04KT P6SM FEW110=



000
FTUS45 KFGZ 260522
TAFPGA
TAF
KPGA 260522Z 2606/2706 VRB06KT P6SM FEW250
     FM262300 28007G14KT P6SM FEW250
     FM270300 VRB04KT P6SM FEW250=



000
FTUS45 KFGZ 260522
TAFINW
TAF
KINW 260522Z 2606/2706 VRB06KT P6SM SCT130
     FM261900 23013G20KT P6SM SCT130
     FM270300 21006KT P6SM FEW130=



000
FTUS45 KFGZ 252325
TAFINW
TAF
KINW 252325Z 2600/2624 VRB06KT P6SM SCT120
     FM261800 21009KT P6SM FEW120 SCT250=



000
FTUS45 KFGZ 252325
TAFFLG
TAF
KFLG 252325Z 2600/2624 21010G18KT P6SM SCT080 SCT250
     FM260100 VRB04KT P6SM BKN090
     FM261600 21007KT P6SM FEW090 FEW250
     FM261800 21010G20KT P6SM FEW090 FEW250=



000
FTUS45 KFGZ 252325
TAFPGA
TAF
KPGA 252325Z 2600/2624 VRB06KT P6SM FEW250=



000
FTUS45 KFGZ 252115 AAA
TAFFLG
TAF AMD
KFLG 252115Z 2521/2618 21010G18KT P6SM SCT080 SCT250
     FM260100 VRB04KT P6SM BKN090=



000
FTUS45 KFGZ 251720
TAFPGA
TAF
KPGA 251720Z 2518/2618 36003KT P6SM FEW250=



000
FTUS45 KFGZ 251720
TAFINW
TAF
KINW 251720Z 2518/2618 VRB06KT P6SM SCT120=



000
FTUS45 KFGZ 251720
TAFFLG
TAF
KFLG 251720Z 2518/2618 23008G16KT P6SM SCT080 SCT250
     FM260100 VRB04KT P6SM BKN090=



    US Dept of Commerce
    National Oceanic and Atmospheric Administration
    National Weather Service
    1325 East West Highway
    Silver Spring, MD 20910
    Page Author: NWS Internet Services Team
Disclaimer
Information Quality
Credits
Glossary
Privacy Policy
Freedom of Information Act (FOIA)
About Us
Career Opportunities